sensor_id;sensor_type;location;lat;lon;timestamp;P1;durP1;ratioP1;P2;durP2;ratioP2
34134;SDS011;20410;55.578;12.968;2024-03-07T00:02:05;8.67;;;5.43;;
34134;SDS011;20410;55.578;12.968;2024-03-07T00:04:31;9.40;;;5.37;;
34134;SDS011;20410;55.578;12.968;2024-03-07T00:06:57;5.97;;;5.07;;
34134;SDS011;20410;55.578;12.968;2024-03-07T00:09:23;7.33;;;5.50;;
34134;SDS011;20410;55.578;12.968;2024-03-07T00:11:49;8.10;;;5.90;;
34134;SDS011;20410;55.578;12.968;2024-03-07T00:14:15;7.03;;;4.87;;
34134;SDS011;20410;55.578;12.968;2024-03-07T00:16:41;7.67;;;5.87;;
34134;SDS011;20410;55.578;12.968;2024-03-07T00:19:07;6.33;;;5.70;;
34134;SDS011;20410;55.578;12.968;2024-03-07T00:21:32;6.20;;;5.17;;
34134;SDS011;20410;55.578;12.968;2024-03-07T00:23:58;7.37;;;5.83;;
34134;SDS011;20410;55.578;12.968;2024-03-07T00:26:24;7.60;;;5.33;;
34134;SDS011;20410;55.578;12.968;2024-03-07T00:28:50;9.83;;;6.53;;
34134;SDS011;20410;55.578;12.968;2024-03-07T00:31:16;8.00;;;6.23;;
34134;SDS011;20410;55.578;12.968;2024-03-07T00:33:42;7.03;;;5.37;;
34134;SDS011;20410;55.578;12.968;2024-03-07T00:36:08;8.10;;;5.80;;
34134;SDS011;20410;55.578;12.968;2024-03-07T00:38:33;6.97;;;5.70;;
34134;SDS011;20410;55.578;12.968;2024-03-07T00:40:59;7.87;;;6.47;;
34134;SDS011;20410;55.578;12.968;2024-03-07T00:43:25;9.17;;;6.70;;
34134;SDS011;20410;55.578;12.968;2024-03-07T00:45:50;9.20;;;6.73;;
34134;SDS011;20410;55.578;12.968;2024-03-07T00:48:16;7.90;;;6.37;;
34134;SDS011;20410;55.578;12.968;2024-03-07T00:50:42;8.30;;;6.67;;
34134;SDS011;20410;55.578;12.968;2024-03-07T00:53:08;9.07;;;6.73;;
34134;SDS011;20410;55.578;12.968;2024-03-07T00:55:35;8.43;;;6.40;;
34134;SDS011;20410;55.578;12.968;2024-03-07T00:58:00;10.20;;;7.03;;
34134;SDS011;20410;55.578;12.968;2024-03-07T01:00:27;9.57;;;6.57;;
34134;SDS011;20410;55.578;12.968;2024-03-07T01:02:53;9.17;;;7.10;;
34134;SDS011;20410;55.578;12.968;2024-03-07T01:05:19;9.47;;;6.87;;
34134;SDS011;20410;55.578;12.968;2024-03-07T01:07:45;8.80;;;6.87;;
34134;SDS011;20410;55.578;12.968;2024-03-07T01:10:12;11.37;;;7.93;;
34134;SDS011;20410;55.578;12.968;2024-03-07T01:12:39;9.40;;;7.83;;
34134;SDS011;20410;55.578;12.968;2024-03-07T01:15:04;9.03;;;8.07;;
34134;SDS011;20410;55.578;12.968;2024-03-07T01:17:31;9.97;;;7.10;;
34134;SDS011;20410;55.578;12.968;2024-03-07T01:19:57;9.77;;;7.83;;
34134;SDS011;20410;55.578;12.968;2024-03-07T01:22:23;8.43;;;7.23;;
34134;SDS011;20410;55.578;12.968;2024-03-07T01:24:49;9.20;;;7.57;;
34134;SDS011;20410;55.578;12.968;2024-03-07T01:27:16;10.07;;;8.00;;
34134;SDS011;20410;55.578;12.968;2024-03-07T01:29:41;9.97;;;8.23;;
34134;SDS011;20410;55.578;12.968;2024-03-07T01:32:09;10.47;;;7.30;;
34134;SDS011;20410;55.578;12.968;2024-03-07T01:34:35;10.77;;;8.23;;
34134;SDS011;20410;55.578;12.968;2024-03-07T01:37:01;9.23;;;7.70;;
34134;SDS011;20410;55.578;12.968;2024-03-07T01:39:27;10.87;;;8.33;;
34134;SDS011;20410;55.578;12.968;2024-03-07T01:41:52;10.77;;;7.50;;
34134;SDS011;20410;55.578;12.968;2024-03-07T01:44:18;10.17;;;7.60;;
34134;SDS011;20410;55.578;12.968;2024-03-07T01:46:44;9.67;;;7.93;;
34134;SDS011;20410;55.578;12.968;2024-03-07T01:49:10;8.87;;;7.07;;
34134;SDS011;20410;55.578;12.968;2024-03-07T01:51:36;10.43;;;6.83;;
34134;SDS011;20410;55.578;12.968;2024-03-07T01:54:03;9.93;;;7.23;;
34134;SDS011;20410;55.578;12.968;2024-03-07T01:56:32;9.57;;;7.13;;
34134;SDS011;20410;55.578;12.968;2024-03-07T01:58:58;9.43;;;7.33;;
34134;SDS011;20410;55.578;12.968;2024-03-07T02:01:26;14.67;;;8.83;;
34134;SDS011;20410;55.578;12.968;2024-03-07T02:03:52;7.97;;;7.13;;
34134;SDS011;20410;55.578;12.968;2024-03-07T02:06:18;9.87;;;7.70;;
34134;SDS011;20410;55.578;12.968;2024-03-07T02:08:44;8.90;;;7.07;;
34134;SDS011;20410;55.578;12.968;2024-03-07T02:11:10;10.37;;;7.07;;
34134;SDS011;20410;55.578;12.968;2024-03-07T02:13:35;10.13;;;7.53;;
34134;SDS011;20410;55.578;12.968;2024-03-07T02:16:01;9.10;;;7.13;;
34134;SDS011;20410;55.578;12.968;2024-03-07T02:18:27;12.77;;;8.13;;
34134;SDS011;20410;55.578;12.968;2024-03-07T02:20:53;10.57;;;7.97;;
34134;SDS011;20410;55.578;12.968;2024-03-07T02:23:19;11.17;;;7.90;;
34134;SDS011;20410;55.578;12.968;2024-03-07T02:25:45;11.07;;;8.20;;
34134;SDS011;20410;55.578;12.968;2024-03-07T02:28:11;11.77;;;7.40;;
34134;SDS011;20410;55.578;12.968;2024-03-07T02:30:36;13.00;;;7.47;;
34134;SDS011;20410;55.578;12.968;2024-03-07T02:33:02;11.77;;;7.80;;
34134;SDS011;20410;55.578;12.968;2024-03-07T02:35:34;10.10;;;7.17;;
34134;SDS011;20410;55.578;12.968;2024-03-07T02:38:04;12.93;;;8.07;;
34134;SDS011;20410;55.578;12.968;2024-03-07T02:40:30;10.00;;;8.03;;
34134;SDS011;20410;55.578;12.968;2024-03-07T02:42:56;10.43;;;7.93;;
34134;SDS011;20410;55.578;12.968;2024-03-07T02:45:23;11.03;;;8.20;;
34134;SDS011;20410;55.578;12.968;2024-03-07T02:47:49;10.33;;;7.70;;
34134;SDS011;20410;55.578;12.968;2024-03-07T02:50:14;10.47;;;7.70;;
34134;SDS011;20410;55.578;12.968;2024-03-07T02:52:40;11.37;;;7.20;;
34134;SDS011;20410;55.578;12.968;2024-03-07T02:55:06;12.77;;;7.33;;
34134;SDS011;20410;55.578;12.968;2024-03-07T02:57:35;9.37;;;7.10;;
34134;SDS011;20410;55.578;12.968;2024-03-07T03:00:01;11.50;;;7.83;;
34134;SDS011;20410;55.578;12.968;2024-03-07T03:02:42;12.67;;;8.07;;
34134;SDS011;20410;55.578;12.968;2024-03-07T03:05:07;8.63;;;6.97;;
34134;SDS011;20410;55.578;12.968;2024-03-07T03:07:34;12.33;;;7.73;;
34134;SDS011;20410;55.578;12.968;2024-03-07T03:10:00;11.80;;;7.43;;
34134;SDS011;20410;55.578;12.968;2024-03-07T03:12:26;12.03;;;8.47;;
34134;SDS011;20410;55.578;12.968;2024-03-07T03:14:51;10.83;;;7.37;;
34134;SDS011;20410;55.578;12.968;2024-03-07T03:17:18;8.40;;;7.30;;
34134;SDS011;20410;55.578;12.968;2024-03-07T03:19:44;10.90;;;7.10;;
34134;SDS011;20410;55.578;12.968;2024-03-07T03:22:10;8.47;;;6.83;;
34134;SDS011;20410;55.578;12.968;2024-03-07T03:24:36;9.13;;;7.30;;
34134;SDS011;20410;55.578;12.968;2024-03-07T03:27:02;12.17;;;7.97;;
34134;SDS011;20410;55.578;12.968;2024-03-07T03:29:27;11.67;;;8.10;;
34134;SDS011;20410;55.578;12.968;2024-03-07T03:31:54;10.17;;;7.50;;
34134;SDS011;20410;55.578;12.968;2024-03-07T03:34:20;11.83;;;7.20;;
34134;SDS011;20410;55.578;12.968;2024-03-07T03:36:46;10.77;;;8.03;;
34134;SDS011;20410;55.578;12.968;2024-03-07T03:39:11;12.03;;;7.60;;
34134;SDS011;20410;55.578;12.968;2024-03-07T03:41:38;12.23;;;8.13;;
34134;SDS011;20410;55.578;12.968;2024-03-07T03:44:03;10.10;;;7.53;;
34134;SDS011;20410;55.578;12.968;2024-03-07T03:46:29;11.57;;;7.37;;
34134;SDS011;20410;55.578;12.968;2024-03-07T03:48:55;12.53;;;8.30;;
34134;SDS011;20410;55.578;12.968;2024-03-07T03:51:20;9.63;;;7.90;;
34134;SDS011;20410;55.578;12.968;2024-03-07T03:53:47;11.03;;;8.03;;
34134;SDS011;20410;55.578;12.968;2024-03-07T03:56:12;9.03;;;7.80;;
34134;SDS011;20410;55.578;12.968;2024-03-07T03:58:39;13.20;;;8.30;;
34134;SDS011;20410;55.578;12.968;2024-03-07T04:01:05;12.93;;;7.70;;
34134;SDS011;20410;55.578;12.968;2024-03-07T04:03:33;13.10;;;8.07;;
34134;SDS011;20410;55.578;12.968;2024-03-07T04:05:58;12.13;;;8.27;;
34134;SDS011;20410;55.578;12.968;2024-03-07T04:08:24;10.87;;;7.90;;
34134;SDS011;20410;55.578;12.968;2024-03-07T04:10:49;11.33;;;8.23;;
34134;SDS011;20410;55.578;12.968;2024-03-07T04:13:15;12.57;;;8.20;;
34134;SDS011;20410;55.578;12.968;2024-03-07T04:15:40;11.00;;;8.10;;
34134;SDS011;20410;55.578;12.968;2024-03-07T04:18:06;11.10;;;8.37;;
34134;SDS011;20410;55.578;12.968;2024-03-07T04:20:32;10.57;;;8.50;;
34134;SDS011;20410;55.578;12.968;2024-03-07T04:22:58;13.60;;;8.63;;
34134;SDS011;20410;55.578;12.968;2024-03-07T04:25:23;13.83;;;8.63;;
34134;SDS011;20410;55.578;12.968;2024-03-07T04:27:50;11.60;;;8.23;;
34134;SDS011;20410;55.578;12.968;2024-03-07T04:30:16;11.87;;;9.03;;
34134;SDS011;20410;55.578;12.968;2024-03-07T04:32:42;10.13;;;8.17;;
34134;SDS011;20410;55.578;12.968;2024-03-07T04:35:07;13.23;;;8.73;;
34134;SDS011;20410;55.578;12.968;2024-03-07T04:37:35;11.37;;;8.73;;
34134;SDS011;20410;55.578;12.968;2024-03-07T04:40:05;13.77;;;8.13;;
34134;SDS011;20410;55.578;12.968;2024-03-07T04:42:41;11.30;;;8.57;;
34134;SDS011;20410;55.578;12.968;2024-03-07T04:45:11;13.23;;;8.73;;
34134;SDS011;20410;55.578;12.968;2024-03-07T04:47:38;10.87;;;8.70;;
34134;SDS011;20410;55.578;12.968;2024-03-07T04:50:08;12.10;;;9.23;;
34134;SDS011;20410;55.578;12.968;2024-03-07T04:52:36;12.45;;;9.85;;
34134;SDS011;20410;55.578;12.968;2024-03-07T04:55:03;12.33;;;9.27;;
34134;SDS011;20410;55.578;12.968;2024-03-07T04:57:30;13.00;;;8.77;;
34134;SDS011;20410;55.578;12.968;2024-03-07T04:59:55;11.00;;;8.53;;
34134;SDS011;20410;55.578;12.968;2024-03-07T05:02:21;14.57;;;9.00;;
34134;SDS011;20410;55.578;12.968;2024-03-07T05:04:48;11.67;;;8.83;;
34134;SDS011;20410;55.578;12.968;2024-03-07T05:07:15;12.73;;;8.80;;
34134;SDS011;20410;55.578;12.968;2024-03-07T05:09:41;12.27;;;9.20;;
34134;SDS011;20410;55.578;12.968;2024-03-07T05:12:06;11.77;;;8.20;;
34134;SDS011;20410;55.578;12.968;2024-03-07T05:14:32;12.20;;;8.77;;
34134;SDS011;20410;55.578;12.968;2024-03-07T05:16:58;12.07;;;9.10;;
34134;SDS011;20410;55.578;12.968;2024-03-07T05:19:33;11.17;;;8.37;;
34134;SDS011;20410;55.578;12.968;2024-03-07T05:21:59;12.23;;;8.43;;
34134;SDS011;20410;55.578;12.968;2024-03-07T05:24:25;11.57;;;8.90;;
34134;SDS011;20410;55.578;12.968;2024-03-07T05:26:50;13.20;;;9.50;;
34134;SDS011;20410;55.578;12.968;2024-03-07T05:29:18;12.10;;;8.60;;
34134;SDS011;20410;55.578;12.968;2024-03-07T05:31:43;10.60;;;8.67;;
34134;SDS011;20410;55.578;12.968;2024-03-07T05:34:13;10.97;;;8.73;;
34134;SDS011;20410;55.578;12.968;2024-03-07T05:36:45;11.90;;;7.80;;
34134;SDS011;20410;55.578;12.968;2024-03-07T05:39:15;11.00;;;8.80;;
34134;SDS011;20410;55.578;12.968;2024-03-07T05:41:43;12.37;;;8.83;;
34134;SDS011;20410;55.578;12.968;2024-03-07T05:44:13;12.23;;;9.23;;
34134;SDS011;20410;55.578;12.968;2024-03-07T05:46:40;11.93;;;8.27;;
34134;SDS011;20410;55.578;12.968;2024-03-07T05:49:10;11.60;;;8.90;;
34134;SDS011;20410;55.578;12.968;2024-03-07T05:51:36;11.33;;;8.60;;
34134;SDS011;20410;55.578;12.968;2024-03-07T05:54:02;12.93;;;8.37;;
34134;SDS011;20410;55.578;12.968;2024-03-07T05:56:34;13.30;;;8.87;;
34134;SDS011;20410;55.578;12.968;2024-03-07T05:59:01;12.97;;;8.97;;
34134;SDS011;20410;55.578;12.968;2024-03-07T06:01:29;13.73;;;8.90;;
34134;SDS011;20410;55.578;12.968;2024-03-07T06:04:01;11.50;;;8.43;;
34134;SDS011;20410;55.578;12.968;2024-03-07T06:06:28;14.43;;;9.07;;
34134;SDS011;20410;55.578;12.968;2024-03-07T06:08:57;12.27;;;8.53;;
34134;SDS011;20410;55.578;12.968;2024-03-07T06:11:23;11.77;;;8.60;;
34134;SDS011;20410;55.578;12.968;2024-03-07T06:13:48;12.70;;;8.97;;
34134;SDS011;20410;55.578;12.968;2024-03-07T06:16:14;10.63;;;7.87;;
34134;SDS011;20410;55.578;12.968;2024-03-07T06:18:43;12.47;;;9.27;;
34134;SDS011;20410;55.578;12.968;2024-03-07T06:21:11;13.80;;;8.97;;
34134;SDS011;20410;55.578;12.968;2024-03-07T06:23:38;12.77;;;9.47;;
34134;SDS011;20410;55.578;12.968;2024-03-07T06:26:04;11.37;;;8.97;;
34134;SDS011;20410;55.578;12.968;2024-03-07T06:28:37;11.30;;;8.63;;
34134;SDS011;20410;55.578;12.968;2024-03-07T06:31:06;11.33;;;8.93;;
34134;SDS011;20410;55.578;12.968;2024-03-07T06:33:33;10.97;;;9.23;;
34134;SDS011;20410;55.578;12.968;2024-03-07T06:35:59;11.83;;;8.03;;
34134;SDS011;20410;55.578;12.968;2024-03-07T06:38:26;12.73;;;8.37;;
34134;SDS011;20410;55.578;12.968;2024-03-07T06:40:52;10.90;;;8.93;;
34134;SDS011;20410;55.578;12.968;2024-03-07T06:43:18;14.43;;;9.33;;
34134;SDS011;20410;55.578;12.968;2024-03-07T06:45:43;13.07;;;8.63;;
34134;SDS011;20410;55.578;12.968;2024-03-07T06:48:11;12.37;;;8.50;;
34134;SDS011;20410;55.578;12.968;2024-03-07T06:50:38;11.43;;;8.37;;
34134;SDS011;20410;55.578;12.968;2024-03-07T06:53:04;12.23;;;8.90;;
34134;SDS011;20410;55.578;12.968;2024-03-07T06:55:31;12.47;;;8.10;;
34134;SDS011;20410;55.578;12.968;2024-03-07T06:57:58;12.37;;;7.87;;
34134;SDS011;20410;55.578;12.968;2024-03-07T07:00:25;10.80;;;8.17;;
34134;SDS011;20410;55.578;12.968;2024-03-07T07:02:51;9.97;;;8.03;;
34134;SDS011;20410;55.578;12.968;2024-03-07T07:05:19;11.00;;;7.10;;
34134;SDS011;20410;55.578;12.968;2024-03-07T07:07:45;10.93;;;7.07;;
34134;SDS011;20410;55.578;12.968;2024-03-07T07:10:13;9.65;;;8.20;;
34134;SDS011;20410;55.578;12.968;2024-03-07T07:12:48;11.52;;;8.10;;
34134;SDS011;20410;55.578;12.968;2024-03-07T07:15:15;10.40;;;8.13;;
34134;SDS011;20410;55.578;12.968;2024-03-07T07:17:43;9.90;;;7.33;;
34134;SDS011;20410;55.578;12.968;2024-03-07T07:20:11;9.50;;;7.90;;
34134;SDS011;20410;55.578;12.968;2024-03-07T07:22:40;10.83;;;7.57;;
34134;SDS011;20410;55.578;12.968;2024-03-07T07:25:11;10.30;;;7.10;;
34134;SDS011;20410;55.578;12.968;2024-03-07T07:27:49;11.17;;;7.60;;
34134;SDS011;20410;55.578;12.968;2024-03-07T07:30:20;9.70;;;7.57;;
34134;SDS011;20410;55.578;12.968;2024-03-07T07:32:48;9.83;;;7.77;;
34134;SDS011;20410;55.578;12.968;2024-03-07T07:35:14;10.03;;;7.40;;
34134;SDS011;20410;55.578;12.968;2024-03-07T07:37:40;10.37;;;7.87;;
34134;SDS011;20410;55.578;12.968;2024-03-07T07:40:08;10.53;;;7.40;;
34134;SDS011;20410;55.578;12.968;2024-03-07T07:42:38;8.53;;;7.63;;
34134;SDS011;20410;55.578;12.968;2024-03-07T07:45:14;9.90;;;7.73;;
34134;SDS011;20410;55.578;12.968;2024-03-07T07:53:45;8.30;;;7.10;;
34134;SDS011;20410;55.578;12.968;2024-03-07T07:56:14;10.40;;;7.27;;
34134;SDS011;20410;55.578;12.968;2024-03-07T07:59:01;9.83;;;6.97;;
34134;SDS011;20410;55.578;12.968;2024-03-07T08:01:32;11.70;;;7.30;;
34134;SDS011;20410;55.578;12.968;2024-03-07T08:04:01;8.23;;;6.93;;
34134;SDS011;20410;55.578;12.968;2024-03-07T08:06:35;8.13;;;6.87;;
34134;SDS011;20410;55.578;12.968;2024-03-07T08:09:09;8.77;;;7.23;;
34134;SDS011;20410;55.578;12.968;2024-03-07T08:11:41;8.70;;;7.20;;
34134;SDS011;20410;55.578;12.968;2024-03-07T08:14:09;8.57;;;6.70;;
34134;SDS011;20410;55.578;12.968;2024-03-07T08:16:48;9.37;;;7.60;;
34134;SDS011;20410;55.578;12.968;2024-03-07T08:22:18;9.13;;;6.97;;
34134;SDS011;20410;55.578;12.968;2024-03-07T08:24:48;12.03;;;7.60;;
34134;SDS011;20410;55.578;12.968;2024-03-07T08:27:14;11.07;;;6.43;;
34134;SDS011;20410;55.578;12.968;2024-03-07T08:29:43;9.40;;;7.13;;
34134;SDS011;20410;55.578;12.968;2024-03-07T08:32:13;8.97;;;6.60;;
34134;SDS011;20410;55.578;12.968;2024-03-07T08:34:46;7.83;;;6.70;;
34134;SDS011;20410;55.578;12.968;2024-03-07T08:37:14;11.47;;;7.30;;
34134;SDS011;20410;55.578;12.968;2024-03-07T08:39:48;8.93;;;6.50;;
34134;SDS011;20410;55.578;12.968;2024-03-07T08:42:14;7.97;;;7.00;;
34134;SDS011;20410;55.578;12.968;2024-03-07T08:44:53;8.43;;;6.97;;
34134;SDS011;20410;55.578;12.968;2024-03-07T08:47:19;6.17;;;5.27;;
34134;SDS011;20410;55.578;12.968;2024-03-07T08:49:50;6.47;;;5.47;;
34134;SDS011;20410;55.578;12.968;2024-03-07T08:52:19;7.53;;;6.50;;
34134;SDS011;20410;55.578;12.968;2024-03-07T08:54:56;8.33;;;6.47;;
34134;SDS011;20410;55.578;12.968;2024-03-07T09:00:20;6.97;;;6.03;;
34134;SDS011;20410;55.578;12.968;2024-03-07T09:03:03;8.03;;;6.33;;
34134;SDS011;20410;55.578;12.968;2024-03-07T09:05:51;7.63;;;5.60;;
34134;SDS011;20410;55.578;12.968;2024-03-07T09:08:19;8.50;;;6.37;;
34134;SDS011;20410;55.578;12.968;2024-03-07T09:11:05;8.60;;;6.27;;
34134;SDS011;20410;55.578;12.968;2024-03-07T09:13:52;8.33;;;5.73;;
34134;SDS011;20410;55.578;12.968;2024-03-07T09:16:32;8.23;;;6.47;;
34134;SDS011;20410;55.578;12.968;2024-03-07T09:19:13;11.07;;;6.27;;
34134;SDS011;20410;55.578;12.968;2024-03-07T09:21:51;8.00;;;5.60;;
34134;SDS011;20410;55.578;12.968;2024-03-07T09:24:48;7.90;;;5.93;;
34134;SDS011;20410;55.578;12.968;2024-03-07T09:27:19;8.37;;;5.90;;
34134;SDS011;20410;55.578;12.968;2024-03-07T09:30:30;11.37;;;5.67;;
34134;SDS011;20410;55.578;12.968;2024-03-07T09:33:05;7.73;;;5.10;;
34134;SDS011;20410;55.578;12.968;2024-03-07T09:35:57;5.90;;;5.30;;
34134;SDS011;20410;55.578;12.968;2024-03-07T09:38:55;8.20;;;5.73;;
34134;SDS011;20410;55.578;12.968;2024-03-07T09:41:55;8.00;;;5.30;;
34134;SDS011;20410;55.578;12.968;2024-03-07T09:44:46;6.00;;;5.23;;
34134;SDS011;20410;55.578;12.968;2024-03-07T09:47:40;6.90;;;5.80;;
34134;SDS011;20410;55.578;12.968;2024-03-07T09:50:24;6.53;;;5.60;;
34134;SDS011;20410;55.578;12.968;2024-03-07T09:53:22;6.10;;;5.47;;
34134;SDS011;20410;55.578;12.968;2024-03-07T09:56:44;6.60;;;5.40;;
34134;SDS011;20410;55.578;12.968;2024-03-07T09:59:40;8.40;;;5.00;;
34134;SDS011;20410;55.578;12.968;2024-03-07T10:02:48;7.30;;;5.53;;
34134;SDS011;20410;55.578;12.968;2024-03-07T10:06:13;7.87;;;5.23;;
34134;SDS011;20410;55.578;12.968;2024-03-07T10:08:57;7.77;;;5.53;;
34134;SDS011;20410;55.578;12.968;2024-03-07T10:12:09;6.67;;;5.97;;
34134;SDS011;20410;55.578;12.968;2024-03-07T10:15:03;7.20;;;5.37;;
34134;SDS011;20410;55.578;12.968;2024-03-07T10:17:55;6.40;;;5.00;;
34134;SDS011;20410;55.578;12.968;2024-03-07T10:21:07;6.00;;;5.07;;
34134;SDS011;20410;55.578;12.968;2024-03-07T10:23:56;8.60;;;5.20;;
34134;SDS011;20410;55.578;12.968;2024-03-07T10:26:54;6.23;;;4.70;;
34134;SDS011;20410;55.578;12.968;2024-03-07T10:30:00;6.30;;;5.13;;
34134;SDS011;20410;55.578;12.968;2024-03-07T10:33:17;7.07;;;5.53;;
34134;SDS011;20410;55.578;12.968;2024-03-07T10:35:59;7.77;;;4.93;;
34134;SDS011;20410;55.578;12.968;2024-03-07T10:39:10;6.70;;;4.57;;
34134;SDS011;20410;55.578;12.968;2024-03-07T10:42:00;8.03;;;5.67;;
34134;SDS011;20410;55.578;12.968;2024-03-07T10:44:30;6.57;;;5.60;;
34134;SDS011;20410;55.578;12.968;2024-03-07T10:46:57;7.07;;;5.00;;
34134;SDS011;20410;55.578;12.968;2024-03-07T10:49:25;10.20;;;5.30;;
34134;SDS011;20410;55.578;12.968;2024-03-07T10:52:03;5.60;;;4.60;;
34134;SDS011;20410;55.578;12.968;2024-03-07T10:55:00;6.90;;;5.07;;
34134;SDS011;20410;55.578;12.968;2024-03-07T10:57:31;9.80;;;5.47;;
34134;SDS011;20410;55.578;12.968;2024-03-07T11:00:55;5.60;;;4.80;;
34134;SDS011;20410;55.578;12.968;2024-03-07T11:03:25;8.57;;;5.00;;
34134;SDS011;20410;55.578;12.968;2024-03-07T11:05:51;7.30;;;4.70;;
34134;SDS011;20410;55.578;12.968;2024-03-07T11:08:17;6.60;;;4.67;;
34134;SDS011;20410;55.578;12.968;2024-03-07T11:10:44;6.90;;;5.33;;
34134;SDS011;20410;55.578;12.968;2024-03-07T11:13:12;6.63;;;5.17;;
34134;SDS011;20410;55.578;12.968;2024-03-07T11:15:40;5.37;;;4.60;;
34134;SDS011;20410;55.578;12.968;2024-03-07T11:18:08;6.63;;;5.20;;
34134;SDS011;20410;55.578;12.968;2024-03-07T11:20:35;6.30;;;4.97;;
34134;SDS011;20410;55.578;12.968;2024-03-07T11:26:07;7.20;;;4.53;;
34134;SDS011;20410;55.578;12.968;2024-03-07T11:28:35;7.80;;;4.50;;
34134;SDS011;20410;55.578;12.968;2024-03-07T11:31:07;7.67;;;4.33;;
34134;SDS011;20410;55.578;12.968;2024-03-07T11:34:14;5.60;;;4.47;;
34134;SDS011;20410;55.578;12.968;2024-03-07T11:36:44;7.20;;;5.00;;
34134;SDS011;20410;55.578;12.968;2024-03-07T11:42:06;5.40;;;4.47;;
34134;SDS011;20410;55.578;12.968;2024-03-07T11:44:33;5.80;;;4.90;;
34134;SDS011;20410;55.578;12.968;2024-03-07T11:47:05;6.43;;;4.93;;
34134;SDS011;20410;55.578;12.968;2024-03-07T11:49:36;6.30;;;4.83;;
34134;SDS011;20410;55.578;12.968;2024-03-07T11:52:03;6.60;;;4.73;;
34134;SDS011;20410;55.578;12.968;2024-03-07T11:54:36;6.00;;;4.07;;
34134;SDS011;20410;55.578;12.968;2024-03-07T11:57:11;5.47;;;4.80;;
34134;SDS011;20410;55.578;12.968;2024-03-07T12:00:12;4.93;;;4.33;;
34134;SDS011;20410;55.578;12.968;2024-03-07T12:03:01;6.40;;;4.70;;
34134;SDS011;20410;55.578;12.968;2024-03-07T12:05:42;5.77;;;4.27;;
34134;SDS011;20410;55.578;12.968;2024-03-07T12:08:16;7.77;;;4.63;;
34134;SDS011;20410;55.578;12.968;2024-03-07T12:10:55;7.73;;;4.70;;
34134;SDS011;20410;55.578;12.968;2024-03-07T12:13:43;7.03;;;4.70;;
34134;SDS011;20410;55.578;12.968;2024-03-07T12:16:11;7.60;;;5.17;;
34134;SDS011;20410;55.578;12.968;2024-03-07T12:18:49;6.87;;;5.03;;
34134;SDS011;20410;55.578;12.968;2024-03-07T12:21:37;6.63;;;4.67;;
34134;SDS011;20410;55.578;12.968;2024-03-07T12:24:18;6.60;;;4.43;;
34134;SDS011;20410;55.578;12.968;2024-03-07T12:26:50;6.53;;;4.67;;
34134;SDS011;20410;55.578;12.968;2024-03-07T12:29:27;7.73;;;5.40;;
34134;SDS011;20410;55.578;12.968;2024-03-07T12:32:18;7.23;;;4.60;;
34134;SDS011;20410;55.578;12.968;2024-03-07T12:34:54;7.37;;;5.33;;
34134;SDS011;20410;55.578;12.968;2024-03-07T12:37:31;5.90;;;5.30;;
34134;SDS011;20410;55.578;12.968;2024-03-07T12:40:42;7.43;;;5.00;;
34134;SDS011;20410;55.578;12.968;2024-03-07T12:45:48;6.57;;;5.00;;
34134;SDS011;20410;55.578;12.968;2024-03-07T12:48:17;6.77;;;4.77;;
34134;SDS011;20410;55.578;12.968;2024-03-07T12:50:46;6.80;;;5.17;;
34134;SDS011;20410;55.578;12.968;2024-03-07T12:53:18;6.83;;;5.00;;
34134;SDS011;20410;55.578;12.968;2024-03-07T12:59:20;7.03;;;5.07;;
34134;SDS011;20410;55.578;12.968;2024-03-07T13:08:12;7.07;;;5.63;;
34134;SDS011;20410;55.578;12.968;2024-03-07T13:14:32;8.10;;;5.60;;
34134;SDS011;20410;55.578;12.968;2024-03-07T13:17:29;6.33;;;5.30;;
34134;SDS011;20410;55.578;12.968;2024-03-07T13:20:55;6.27;;;4.87;;
34134;SDS011;20410;55.578;12.968;2024-03-07T13:23:39;7.27;;;5.63;;
34134;SDS011;20410;55.578;12.968;2024-03-07T13:29:30;7.77;;;5.33;;
34134;SDS011;20410;55.578;12.968;2024-03-07T13:32:07;11.43;;;5.87;;
34134;SDS011;20410;55.578;12.968;2024-03-07T13:34:45;8.67;;;5.43;;
34134;SDS011;20410;55.578;12.968;2024-03-07T13:38:05;7.47;;;5.67;;
34134;SDS011;20410;55.578;12.968;2024-03-07T13:44:09;6.73;;;5.40;;
34134;SDS011;20410;55.578;12.968;2024-03-07T13:46:47;8.37;;;5.43;;
34134;SDS011;20410;55.578;12.968;2024-03-07T13:49:23;6.50;;;5.77;;
34134;SDS011;20410;55.578;12.968;2024-03-07T13:51:55;6.97;;;5.83;;
34134;SDS011;20410;55.578;12.968;2024-03-07T13:54:35;8.73;;;5.80;;
34134;SDS011;20410;55.578;12.968;2024-03-07T13:57:29;6.33;;;5.60;;
34134;SDS011;20410;55.578;12.968;2024-03-07T14:00:17;6.60;;;5.90;;
34134;SDS011;20410;55.578;12.968;2024-03-07T14:02:56;8.10;;;5.97;;
34134;SDS011;20410;55.578;12.968;2024-03-07T14:26:35;9.10;;;7.03;;
34134;SDS011;20410;55.578;12.968;2024-03-07T14:32:17;8.83;;;6.97;;
34134;SDS011;20410;55.578;12.968;2024-03-07T14:34:56;10.07;;;6.83;;
34134;SDS011;20410;55.578;12.968;2024-03-07T14:40:04;8.87;;;6.40;;
34134;SDS011;20410;55.578;12.968;2024-03-07T14:42:36;7.93;;;6.03;;
34134;SDS011;20410;55.578;12.968;2024-03-07T14:45:06;8.83;;;6.27;;
34134;SDS011;20410;55.578;12.968;2024-03-07T14:47:34;10.87;;;6.20;;
34134;SDS011;20410;55.578;12.968;2024-03-07T14:50:00;8.73;;;6.43;;
34134;SDS011;20410;55.578;12.968;2024-03-07T14:52:26;9.80;;;7.27;;
34134;SDS011;20410;55.578;12.968;2024-03-07T14:54:54;8.47;;;6.83;;
34134;SDS011;20410;55.578;12.968;2024-03-07T14:57:20;9.10;;;7.43;;
34134;SDS011;20410;55.578;12.968;2024-03-07T14:59:45;10.60;;;7.57;;
34134;SDS011;20410;55.578;12.968;2024-03-07T15:02:11;7.77;;;6.50;;
34134;SDS011;20410;55.578;12.968;2024-03-07T15:04:39;8.10;;;7.03;;
34134;SDS011;20410;55.578;12.968;2024-03-07T15:07:06;8.77;;;7.50;;
34134;SDS011;20410;55.578;12.968;2024-03-07T15:09:34;8.83;;;7.10;;
34134;SDS011;20410;55.578;12.968;2024-03-07T15:12:01;7.87;;;6.67;;
34134;SDS011;20410;55.578;12.968;2024-03-07T15:14:27;8.33;;;6.90;;
34134;SDS011;20410;55.578;12.968;2024-03-07T15:16:52;8.93;;;7.47;;
34134;SDS011;20410;55.578;12.968;2024-03-07T15:19:18;8.03;;;6.87;;
34134;SDS011;20410;55.578;12.968;2024-03-07T15:21:43;11.97;;;7.40;;
34134;SDS011;20410;55.578;12.968;2024-03-07T15:24:09;8.93;;;7.03;;
34134;SDS011;20410;55.578;12.968;2024-03-07T15:26:36;8.87;;;7.33;;
34134;SDS011;20410;55.578;12.968;2024-03-07T15:29:01;9.63;;;7.30;;
34134;SDS011;20410;55.578;12.968;2024-03-07T15:31:27;8.97;;;6.73;;
34134;SDS011;20410;55.578;12.968;2024-03-07T15:33:53;10.60;;;6.70;;
34134;SDS011;20410;55.578;12.968;2024-03-07T15:36:19;11.67;;;7.53;;
34134;SDS011;20410;55.578;12.968;2024-03-07T15:38:50;7.80;;;6.40;;
34134;SDS011;20410;55.578;12.968;2024-03-07T15:41:16;9.57;;;6.87;;
34134;SDS011;20410;55.578;12.968;2024-03-07T15:43:42;10.90;;;6.33;;
34134;SDS011;20410;55.578;12.968;2024-03-07T15:46:08;9.90;;;7.27;;
34134;SDS011;20410;55.578;12.968;2024-03-07T15:48:36;11.50;;;7.33;;
34134;SDS011;20410;55.578;12.968;2024-03-07T15:51:02;10.93;;;7.40;;
34134;SDS011;20410;55.578;12.968;2024-03-07T15:53:28;9.87;;;7.20;;
34134;SDS011;20410;55.578;12.968;2024-03-07T15:55:54;10.30;;;7.23;;
34134;SDS011;20410;55.578;12.968;2024-03-07T15:58:20;10.30;;;7.33;;
34134;SDS011;20410;55.578;12.968;2024-03-07T16:00:46;10.57;;;7.47;;
34134;SDS011;20410;55.578;12.968;2024-03-07T16:03:12;12.37;;;7.33;;
34134;SDS011;20410;55.578;12.968;2024-03-07T16:05:39;8.43;;;7.23;;